Time;durP1;ratioP1;P1;durP2;ratioP2;P2;SDS_P1;SDS_P2;PMS_P1;PMS_P2;Temp;Humidity;BMP_temperature;BMP_pressure;BME280_temperature;BME280_humidity;BME280_pressure;Samples;Min_cycle;Max_cycle;Signal;HPM_P1;HPM_P2
2021/07/02 00:00:35;;;;;;;3.45;3.15;;;16.90;77.50;;;;;;5075323;27;20028;-65
2021/07/02 00:03:01;;;;;;;6.15;3.42;;;16.90;77.50;;;;;;5077739;28;20047;-65
2021/07/02 00:05:27;;;;;;;3.35;3.05;;;16.80;77.50;;;;;;5078369;27;20117;-64
2021/07/02 00:07:53;;;;;;;3.28;2.92;;;16.80;77.50;;;;;;5077923;28;20039;-64
2021/07/02 00:10:19;;;;;;;6.25;3.40;;;16.80;77.50;;;;;;5081320;27;20037;-64
2021/07/02 00:12:44;;;;;;;5.20;2.97;;;16.80;77.50;;;;;;5078412;27;20040;-65
2021/07/02 00:15:12;;;;;;;3.85;3.20;;;16.70;77.40;;;;;;5081739;28;20032;-64
2021/07/02 00:17:38;;;;;;;2.95;2.72;;;16.70;77.50;;;;;;5086490;27;20522;-65
2021/07/02 00:20:04;;;;;;;4.53;2.90;;;16.60;77.30;;;;;;5079265;28;20037;-64
2021/07/02 00:22:32;;;;;;;5.80;3.28;;;16.70;77.30;;;;;;5088680;27;20528;-64
2021/07/02 00:24:59;;;;;;;4.30;2.90;;;16.60;77.00;;;;;;5077225;27;20039;-64
2021/07/02 00:27:24;;;;;;;6.15;2.90;;;16.60;76.80;;;;;;5088155;27;20047;-65
2021/07/02 00:29:50;;;;;;;3.38;3.08;;;16.60;76.90;;;;;;5074418;27;20090;-65
2021/07/02 00:32:15;;;;;;;4.38;3.45;;;16.50;76.80;;;;;;5080079;28;20566;-64
2021/07/02 00:34:41;;;;;;;4.07;3.20;;;16.50;76.80;;;;;;5081395;27;20549;-65
2021/07/02 00:37:07;;;;;;;4.93;3.10;;;16.50;76.80;;;;;;5085243;27;20055;-64
2021/07/02 00:39:32;;;;;;;4.32;3.08;;;16.40;76.60;;;;;;5081149;28;20035;-65
2021/07/02 00:41:58;;;;;;;3.05;2.75;;;16.40;76.70;;;;;;5084743;27;20036;-65
2021/07/02 00:44:47;;;;;;;5.82;3.25;;;16.30;76.60;;;;;;5086204;27;20025;-65
2021/07/02 00:47:15;;;;;;;4.15;2.60;;;16.30;76.80;;;;;;5089173;28;20067;-67
2021/07/02 00:49:42;;;;;;;3.63;2.95;;;16.20;76.60;;;;;;5089586;27;20445;-67
2021/07/02 00:52:10;;;;;;;4.03;2.58;;;16.20;76.80;;;;;;5080897;28;21176;-67
2021/07/02 00:54:37;;;;;;;4.47;3.08;;;16.10;76.80;;;;;;5084645;28;20024;-67
2021/07/02 00:57:05;;;;;;;3.65;2.88;;;16.00;77.00;;;;;;5085998;27;20032;-67
2021/07/02 00:59:31;;;;;;;5.60;2.90;;;16.00;77.10;;;;;;5089277;28;20062;-68
2021/07/02 01:01:57;;;;;;;3.55;3.20;;;15.90;77.40;;;;;;5086130;27;20529;-67
2021/07/02 01:04:23;;;;;;;3.40;3.08;;;15.90;77.70;;;;;;5087379;28;20052;-67
2021/07/02 01:06:51;;;;;;;5.70;3.10;;;15.90;77.80;;;;;;5085526;28;20044;-68
2021/07/02 01:09:18;;;;;;;3.70;3.30;;;15.80;77.90;;;;;;5082140;28;20028;-67
2021/07/02 01:11:43;;;;;;;5.05;3.17;;;15.80;78.00;;;;;;5081996;28;20123;-67
2021/07/02 01:14:09;;;;;;;3.38;2.92;;;15.80;78.20;;;;;;5076160;27;20050;-67
2021/07/02 01:16:38;;;;;;;3.60;3.03;;;15.80;78.30;;;;;;5075538;27;20036;-67
2021/07/02 01:19:04;;;;;;;6.20;3.20;;;15.80;78.70;;;;;;5078221;27;20055;-67
2021/07/02 01:21:30;;;;;;;3.88;3.40;;;15.70;78.70;;;;;;5080660;27;20035;-67
2021/07/02 01:23:55;;;;;;;4.40;3.13;;;15.80;78.90;;;;;;5080557;28;20615;-67
2021/07/02 01:26:22;;;;;;;3.55;2.92;;;15.80;78.90;;;;;;5082423;27;20044;-67
2021/07/02 01:28:49;;;;;;;5.68;3.47;;;15.80;78.90;;;;;;5082409;27;20210;-67
2021/07/02 01:31:15;;;;;;;4.22;3.63;;;15.80;78.90;;;;;;5077722;28;20032;-67
2021/07/02 01:33:41;;;;;;;3.65;3.33;;;15.80;78.70;;;;;;5079471;27;20387;-67
2021/07/02 01:36:08;;;;;;;4.70;3.50;;;15.80;78.70;;;;;;5086636;28;20032;-67
2021/07/02 01:38:35;;;;;;;4.07;3.28;;;15.80;78.90;;;;;;5075278;27;20032;-67
2021/07/02 01:41:01;;;;;;;6.40;3.33;;;15.90;79.00;;;;;;5084080;27;20032;-67
2021/07/02 01:43:27;;;;;;;3.17;2.88;;;15.80;78.90;;;;;;5087484;28;20040;-67
2021/07/02 01:45:54;;;;;;;6.32;3.65;;;15.90;79.00;;;;;;5082545;28;20042;-67
2021/07/02 01:48:20;;;;;;;3.50;3.20;;;15.90;79.10;;;;;;5087358;28;20162;-67
2021/07/02 01:50:45;;;;;;;3.47;3.08;;;15.90;78.90;;;;;;5085275;28;20107;-67
2021/07/02 01:53:11;;;;;;;4.50;3.30;;;15.90;78.90;;;;;;5080894;28;20036;-67
2021/07/02 01:55:36;;;;;;;5.75;3.05;;;15.80;78.80;;;;;;5083254;28;20118;-67
2021/07/02 01:58:02;;;;;;;5.07;3.45;;;15.80;78.90;;;;;;5087909;27;20503;-67
2021/07/02 02:00:28;;;;;;;4.55;3.25;;;15.80;79.00;;;;;;5086875;28;20040;-67
2021/07/02 02:02:53;;;;;;;6.53;3.70;;;15.80;79.00;;;;;;5087660;27;20071;-67
2021/07/02 02:05:19;;;;;;;4.18;3.42;;;15.80;78.90;;;;;;5086458;27;20503;-66
2021/07/02 02:07:45;;;;;;;5.50;3.25;;;15.90;78.90;;;;;;5080412;28;20032;-67
2021/07/02 02:10:11;;;;;;;3.28;2.83;;;15.90;79.00;;;;;;5083953;27;20035;-67
2021/07/02 02:12:36;;;;;;;4.13;2.80;;;15.90;78.90;;;;;;5082078;27;20066;-67
2021/07/02 02:15:04;;;;;;;4.43;2.88;;;15.90;78.90;;;;;;5086783;28;20499;-67
2021/07/02 02:17:30;;;;;;;3.47;2.88;;;15.90;78.80;;;;;;5087233;27;20036;-67
2021/07/02 02:19:55;;;;;;;5.28;3.45;;;16.00;78.90;;;;;;5088232;28;20043;-67
2021/07/02 02:22:21;;;;;;;5.30;3.20;;;15.90;78.80;;;;;;5082675;27;20779;-67
2021/07/02 02:24:47;;;;;;;3.00;2.65;;;16.00;78.90;;;;;;5080228;28;20048;-67
2021/07/02 02:27:12;;;;;;;4.93;2.88;;;15.90;78.90;;;;;;5077195;28;20033;-67
2021/07/02 02:29:38;;;;;;;3.30;3.00;;;16.00;79.00;;;;;;5082301;27;20036;-67
2021/07/02 02:32:05;;;;;;;3.92;3.00;;;16.00;79.10;;;;;;5077220;28;20037;-67
2021/07/02 02:34:30;;;;;;;7.47;3.40;;;15.90;79.00;;;;;;5072543;28;20051;-69
2021/07/02 02:36:56;;;;;;;5.35;3.30;;;16.00;79.10;;;;;;5078430;28;20032;-67
2021/07/02 02:39:22;;;;;;;3.50;3.10;;;16.00;79.10;;;;;;5079247;28;20441;-67
2021/07/02 02:41:47;;;;;;;3.30;3.00;;;16.00;79.00;;;;;;5080300;28;20145;-67
2021/07/02 02:44:13;;;;;;;3.72;3.00;;;16.00;79.00;;;;;;5081455;28;20520;-67
2021/07/02 02:46:39;;;;;;;3.70;3.28;;;16.10;79.00;;;;;;5079290;27;20048;-67
2021/07/02 02:49:04;;;;;;;4.80;3.33;;;16.00;78.90;;;;;;5091738;27;20036;-67
2021/07/02 02:51:30;;;;;;;3.90;3.03;;;16.10;78.90;;;;;;5076300;27;20754;-66
2021/07/02 02:53:56;;;;;;;7.05;3.67;;;16.10;78.90;;;;;;5082811;27;20402;-68
2021/07/02 02:56:21;;;;;;;4.68;3.70;;;16.10;78.70;;;;;;5077533;27;20181;-67
2021/07/02 02:58:47;;;;;;;5.55;4.00;;;16.10;78.70;;;;;;5072462;28;20042;-67
2021/07/02 03:01:12;;;;;;;4.90;3.42;;;16.10;78.60;;;;;;5078752;27;20432;-67
2021/07/02 03:03:38;;;;;;;4.28;3.78;;;16.10;78.60;;;;;;5076010;27;20048;-68
2021/07/02 03:06:04;;;;;;;6.00;4.18;;;16.00;78.50;;;;;;5078508;27;20617;-68
2021/07/02 03:08:30;;;;;;;6.15;3.97;;;16.10;78.40;;;;;;5077562;27;20035;-67
2021/07/02 03:10:55;;;;;;;4.18;3.38;;;16.10;78.40;;;;;;5078887;28;20078;-67
2021/07/02 03:13:21;;;;;;;4.03;3.22;;;16.10;78.40;;;;;;5079795;28;20029;-67
2021/07/02 03:15:46;;;;;;;4.25;3.47;;;16.10;78.40;;;;;;5076557;28;20704;-67
2021/07/02 03:18:12;;;;;;;5.68;3.60;;;16.10;78.20;;;;;;5075005;28;20036;-67
2021/07/02 03:20:38;;;;;;;5.68;3.67;;;16.10;77.90;;;;;;5073526;27;20575;-67
2021/07/02 03:23:04;;;;;;;5.63;3.25;;;16.10;77.70;;;;;;5084171;28;20032;-67
2021/07/02 03:25:29;;;;;;;5.32;3.30;;;16.10;77.60;;;;;;5084201;27;20028;-67
2021/07/02 03:27:55;;;;;;;8.68;3.45;;;16.00;77.50;;;;;;5078144;28;20034;-67
2021/07/02 03:30:20;;;;;;;4.47;3.88;;;16.00;77.70;;;;;;5072469;27;20058;-67
2021/07/02 03:32:46;;;;;;;8.23;3.88;;;15.90;77.60;;;;;;5076465;27;20696;-68
2021/07/02 03:35:12;;;;;;;5.03;3.60;;;15.80;77.70;;;;;;5081908;28;20748;-67
2021/07/02 03:37:38;;;;;;;4.03;3.55;;;15.80;78.00;;;;;;5076568;28;20453;-67
2021/07/02 03:40:09;;;;;;;3.90;3.50;;;15.70;78.10;;;;;;5077373;28;20062;-68
2021/07/02 03:42:35;;;;;;;7.72;3.83;;;15.70;78.30;;;;;;5078896;27;20042;-67
2021/07/02 03:45:01;;;;;;;5.20;3.58;;;15.60;78.40;;;;;;5075816;27;20064;-66
2021/07/02 03:47:27;;;;;;;5.35;3.90;;;15.60;78.50;;;;;;5070060;27;20064;-67
2021/07/02 03:49:52;;;;;;;4.50;3.75;;;15.60;78.50;;;;;;5080883;27;20075;-67
2021/07/02 03:52:18;;;;;;;4.00;3.60;;;15.50;78.40;;;;;;5075895;28;20431;-67
2021/07/02 03:54:43;;;;;;;4.35;3.35;;;15.50;78.50;;;;;;5080411;27;20044;-66
2021/07/02 03:57:13;;;;;;;4.40;3.58;;;15.40;78.50;;;;;;5080317;27;20444;-65
2021/07/02 03:59:44;;;;;;;4.47;3.63;;;15.40;78.60;;;;;;5080317;28;20434;-67
2021/07/02 04:02:10;;;;;;;4.30;3.53;;;15.40;78.70;;;;;;5076057;28;20081;-66
2021/07/02 04:04:36;;;;;;;11.60;4.37;;;15.40;78.80;;;;;;5082795;27;20020;-67
2021/07/02 04:07:04;;;;;;;7.38;5.50;;;15.40;78.70;;;;;;5076640;28;20104;-66
2021/07/02 04:09:30;;;;;;;8.88;6.47;;;15.40;79.60;;;;;;5075653;27;20032;-67
2021/07/02 04:11:56;;;;;;;6.78;6.07;;;15.40;78.90;;;;;;5079430;28;20038;-67
2021/07/02 04:14:22;;;;;;;7.57;6.03;;;15.40;79.10;;;;;;5082180;27;20498;-67
2021/07/02 04:16:47;;;;;;;8.13;5.80;;;15.40;79.10;;;;;;5096517;27;20028;-67
2021/07/02 04:19:13;;;;;;;8.30;4.95;;;15.40;79.30;;;;;;5086228;28;20487;-67
2021/07/02 04:21:38;;;;;;;14.30;11.20;;;15.40;79.40;;;;;;5079884;27;20032;-67
2021/07/02 04:24:04;;;;;;;8.45;6.78;;;15.40;79.60;;;;;;5074892;28;20032;-66
2021/07/02 04:26:30;;;;;;;8.52;5.72;;;15.40;79.70;;;;;;5078289;28;20097;-67
2021/07/02 04:28:56;;;;;;;5.25;4.75;;;15.50;79.80;;;;;;5077698;27;20870;-67
2021/07/02 04:31:22;;;;;;;7.32;4.30;;;15.50;79.80;;;;;;5084187;27;20040;-67
2021/07/02 04:33:47;;;;;;;6.63;4.78;;;15.60;79.90;;;;;;5086057;27;20113;-68
2021/07/02 04:36:15;;;;;;;7.70;5.05;;;15.60;80.00;;;;;;5087198;28;20093;-67
2021/07/02 04:38:41;;;;;;;6.60;5.90;;;15.60;80.00;;;;;;5083106;27;20043;-67
2021/07/02 04:41:07;;;;;;;6.85;4.78;;;15.70;80.10;;;;;;5087041;27;20040;-67
2021/07/02 04:43:33;;;;;;;6.07;4.45;;;15.70;80.10;;;;;;5084402;28;20403;-67
2021/07/02 04:45:58;;;;;;;6.30;5.10;;;15.70;80.00;;;;;;5084590;27;20514;-67
2021/07/02 04:48:24;;;;;;;12.10;8.15;;;15.80;80.00;;;;;;5086830;27;20029;-68
2021/07/02 04:50:49;;;;;;;22.08;16.52;;;15.80;80.10;;;;;;5086426;28;20077;-67
2021/07/02 04:53:17;;;;;;;7.13;5.93;;;15.80;80.00;;;;;;5084556;27;20032;-68
2021/07/02 04:55:43;;;;;;;7.15;5.63;;;15.90;80.00;;;;;;5085021;28;20514;-67
2021/07/02 04:58:08;;;;;;;6.22;4.95;;;15.90;79.90;;;;;;5085668;27;20047;-68
2021/07/02 05:00:34;;;;;;;6.75;5.03;;;16.00;80.00;;;;;;5079125;27;20118;-67
2021/07/02 05:03:00;;;;;;;6.07;4.47;;;15.90;79.80;;;;;;5086565;28;20032;-68
2021/07/02 05:05:25;;;;;;;5.90;4.68;;;16.00;79.80;;;;;;5086079;27;20032;-67
2021/07/02 05:07:51;;;;;;;8.57;4.75;;;16.00;80.00;;;;;;5083216;28;20032;-67
2021/07/02 05:10:16;;;;;;;5.88;4.97;;;16.10;80.90;;;;;;5085961;27;20036;-68
2021/07/02 05:12:42;;;;;;;6.45;4.60;;;16.10;80.10;;;;;;5080065;27;20115;-67
2021/07/02 05:15:10;;;;;;;6.75;5.20;;;16.10;80.00;;;;;;5084511;28;20032;-67
2021/07/02 05:17:35;;;;;;;8.60;4.90;;;16.10;79.80;;;;;;5085606;27;20066;-67
2021/07/02 05:20:01;;;;;;;7.78;5.43;;;16.20;79.90;;;;;;5077091;28;20032;-68
2021/07/02 05:22:26;;;;;;;6.10;4.82;;;16.20;79.80;;;;;;5082606;27;20388;-67
2021/07/02 05:24:52;;;;;;;6.28;4.78;;;16.30;79.70;;;;;;5084729;27;20035;-67
2021/07/02 05:27:18;;;;;;;7.35;4.85;;;16.30;79.60;;;;;;5084888;28;20077;-66
2021/07/02 05:29:44;;;;;;;8.93;5.47;;;16.30;79.60;;;;;;5083962;27;20496;-68
2021/07/02 05:32:10;;;;;;;8.73;5.28;;;16.40;79.60;;;;;;5090951;28;20511;-67
2021/07/02 05:34:36;;;;;;;8.02;5.80;;;16.40;79.60;;;;;;5089105;27;20562;-66
2021/07/02 05:37:02;;;;;;;8.38;5.43;;;16.50;79.30;;;;;;5089154;28;20039;-67
2021/07/02 05:39:28;;;;;;;9.80;5.85;;;16.50;79.20;;;;;;5087761;28;20111;-67
2021/07/02 05:41:53;;;;;;;7.50;5.07;;;16.60;78.90;;;;;;5089505;27;20159;-67
2021/07/02 05:44:19;;;;;;;7.57;5.82;;;16.60;78.70;;;;;;5084262;27;20028;-67
2021/07/02 05:46:45;;;;;;;8.18;5.80;;;16.70;78.60;;;;;;5083142;27;20044;-67
2021/07/02 05:49:12;;;;;;;6.22;5.40;;;16.70;78.50;;;;;;5089699;27;20039;-67
2021/07/02 05:51:37;;;;;;;9.00;5.65;;;16.70;78.40;;;;;;5085978;28;20537;-67
2021/07/02 05:54:04;;;;;;;6.45;5.20;;;16.80;78.40;;;;;;5090009;27;20032;-67
2021/07/02 05:56:30;;;;;;;7.00;5.40;;;16.80;78.00;;;;;;5086225;27;20127;-67
2021/07/02 05:58:57;;;;;;;9.07;5.43;;;16.80;77.60;;;;;;5086456;28;20044;-68
2021/07/02 06:01:23;;;;;;;6.55;4.93;;;16.80;77.60;;;;;;5086646;28;20069;-66
2021/07/02 06:03:49;;;;;;;6.85;5.40;;;16.90;77.70;;;;;;5087377;28;20524;-67
2021/07/02 06:06:15;;;;;;;7.60;5.25;;;16.90;77.70;;;;;;5089189;27;20028;-67
2021/07/02 06:08:40;;;;;;;6.38;4.75;;;17.00;77.50;;;;;;5088571;27;20051;-66
2021/07/02 06:11:06;;;;;;;6.75;4.60;;;17.00;76.90;;;;;;5086966;28;20048;-67
2021/07/02 06:13:32;;;;;;;6.55;4.50;;;17.10;76.90;;;;;;5085675;27;20503;-67
2021/07/02 06:15:58;;;;;;;7.35;4.90;;;17.10;76.50;;;;;;5087533;28;20039;-67
2021/07/02 06:18:23;;;;;;;7.10;4.50;;;17.20;76.00;;;;;;5086503;27;20514;-67
2021/07/02 06:20:52;;;;;;;6.22;4.90;;;17.30;76.00;;;;;;5103240;27;20286;-68
2021/07/02 06:23:22;;;;;;;6.38;5.00;;;17.30;75.40;;;;;;5088859;28;20093;-66
2021/07/02 06:25:48;;;;;;;6.30;5.10;;;17.40;74.40;;;;;;5087414;27;20040;-67
2021/07/02 06:28:15;;;;;;;5.50;4.90;;;17.40;74.10;;;;;;5087908;28;20032;-67
2021/07/02 06:30:42;;;;;;;7.00;4.90;;;17.40;74.40;;;;;;5088648;27;20487;-67
2021/07/02 06:33:09;;;;;;;7.07;5.20;;;17.50;74.70;;;;;;5084805;28;20511;-68
2021/07/02 06:35:35;;;;;;;6.60;5.20;;;17.50;74.40;;;;;;5084814;28;20081;-67
2021/07/02 06:38:01;;;;;;;6.55;5.10;;;17.60;74.70;;;;;;5088765;27;20514;-67
2021/07/02 06:40:27;;;;;;;5.75;4.95;;;17.70;75.10;;;;;;5088319;27;20036;-68
2021/07/02 06:42:53;;;;;;;5.05;4.55;;;17.70;74.20;;;;;;5086064;28;20035;-67
2021/07/02 06:45:18;;;;;;;5.13;4.45;;;17.80;74.30;;;;;;5087325;27;20390;-66
2021/07/02 06:47:56;;;;;;;6.50;5.22;;;17.80;74.20;;;;;;5087554;28;20035;-68
2021/07/02 06:50:26;;;;;;;5.68;5.00;;;17.90;72.50;;;;;;5089227;27;20455;-66
2021/07/02 06:52:53;;;;;;;8.48;5.57;;;18.00;72.80;;;;;;5085117;27;20035;-67
2021/07/02 06:55:19;;;;;;;6.72;5.43;;;18.00;72.30;;;;;;5079497;28;20515;-66
2021/07/02 06:57:44;;;;;;;6.07;5.10;;;18.10;72.10;;;;;;5089718;27;20039;-67
2021/07/02 07:00:10;;;;;;;5.63;4.78;;;18.10;72.00;;;;;;5089556;28;20040;-67
2021/07/02 07:02:36;;;;;;;7.43;4.75;;;18.20;71.10;;;;;;5081118;27;20040;-67
2021/07/02 07:05:03;;;;;;;7.95;4.72;;;18.20;70.00;;;;;;5086365;27;20085;-68
2021/07/02 07:07:29;;;;;;;6.53;4.95;;;18.20;70.40;;;;;;5089123;28;20048;-67
2021/07/02 07:09:55;;;;;;;6.00;5.38;;;18.30;70.80;;;;;;5085495;27;20449;-67
2021/07/02 07:12:20;;;;;;;5.72;4.20;;;18.40;70.40;;;;;;5085969;28;20028;-68
2021/07/02 07:14:47;;;;;;;5.53;4.57;;;18.40;70.20;;;;;;5085408;27;20355;-67
2021/07/02 07:17:13;;;;;;;5.22;4.72;;;18.50;69.70;;;;;;5086497;27;20039;-67
2021/07/02 07:19:39;;;;;;;6.18;4.55;;;18.50;68.80;;;;;;5092719;27;20036;-68
2021/07/02 07:22:05;;;;;;;6.18;4.60;;;18.60;68.40;;;;;;5084841;27;20024;-67
2021/07/02 07:24:30;;;;;;;5.35;4.35;;;18.70;67.80;;;;;;5087188;27;20056;-67
2021/07/02 07:26:57;;;;;;;4.82;4.22;;;18.70;67.10;;;;;;5086184;28;20541;-68
2021/07/02 07:29:24;;;;;;;6.97;4.20;;;18.70;67.80;;;;;;5087642;27;20036;-67
2021/07/02 07:31:50;;;;;;;5.78;4.30;;;18.80;67.60;;;;;;5085954;28;20115;-67
2021/07/02 07:34:24;;;;;;;4.35;3.95;;;18.90;67.30;;;;;;5087238;27;20456;-67
2021/07/02 07:36:54;;;;;;;4.70;3.80;;;18.90;65.70;;;;;;5086033;27;20115;-67
2021/07/02 07:39:20;;;;;;;4.68;4.10;;;19.00;65.40;;;;;;5082954;28;20066;-67
2021/07/02 07:41:45;;;;;;;9.93;4.05;;;19.10;65.00;;;;;;5088446;27;20509;-67
2021/07/02 07:44:13;;;;;;;5.93;4.20;;;19.10;65.20;;;;;;5083789;28;20044;-67
2021/07/02 07:46:39;;;;;;;4.10;3.67;;;19.20;64.60;;;;;;5079251;28;20028;-67
2021/07/02 07:49:05;;;;;;;8.38;4.05;;;19.20;64.10;;;;;;5085710;28;20028;-67
2021/07/02 07:51:34;;;;;;;4.78;4.10;;;19.30;63.10;;;;;;5081452;28;20123;-67
2021/07/02 07:54:00;;;;;;;7.78;3.80;;;19.30;63.60;;;;;;5085476;27;20111;-67
2021/07/02 07:56:30;;;;;;;4.45;4.05;;;19.40;62.80;;;;;;5088176;27;20455;-67
2021/07/02 07:58:56;;;;;;;4.40;3.92;;;19.40;62.90;;;;;;5085093;28;20031;-67
2021/07/02 08:01:22;;;;;;;4.63;3.53;;;19.40;63.20;;;;;;5083169;28;20060;-67
2021/07/02 08:03:48;;;;;;;4.57;4.00;;;19.50;63.40;;;;;;5085096;28;20459;-67
2021/07/02 08:06:13;;;;;;;4.30;3.90;;;19.60;62.80;;;;;;5082480;27;20035;-67
2021/07/02 08:08:39;;;;;;;4.65;3.42;;;19.60;62.50;;;;;;5084438;27;20034;-67
2021/07/02 08:11:05;;;;;;;4.30;3.78;;;19.60;63.30;;;;;;5086738;28;20035;-64
2021/07/02 08:13:30;;;;;;;5.28;3.97;;;19.70;62.50;;;;;;5082848;28;20089;-65
2021/07/02 08:15:56;;;;;;;4.68;3.70;;;19.80;62.20;;;;;;5092903;27;20055;-65
2021/07/02 08:18:22;;;;;;;4.30;3.88;;;19.80;61.70;;;;;;5084776;28;20111;-65
2021/07/02 08:20:48;;;;;;;4.55;3.83;;;19.90;61.00;;;;;;5086613;27;20143;-64
2021/07/02 08:23:14;;;;;;;4.25;3.78;;;19.90;61.00;;;;;;5081218;28;20032;-65
2021/07/02 08:25:39;;;;;;;5.68;3.83;;;20.10;61.70;;;;;;5077365;28;20059;-65
2021/07/02 08:30:50;;;;;;;5.03;3.95;;;20.20;61.10;;;;;;5087250;28;20494;-67
2021/07/02 08:33:18;;;;;;;3.50;3.20;;;20.30;60.40;;;;;;5085078;27;20032;-67
2021/07/02 08:35:44;;;;;;;3.50;3.20;;;20.30;59.10;;;;;;5084069;28;20419;-67
2021/07/02 08:38:10;;;;;;;3.58;3.28;;;20.40;59.80;;;;;;5085444;27;20043;-67
2021/07/02 08:40:36;;;;;;;3.53;3.22;;;20.40;57.70;;;;;;5086729;27;20171;-67
2021/07/02 08:43:01;;;;;;;3.40;3.08;;;20.40;57.90;;;;;;5085855;28;20455;-66
2021/07/02 08:45:27;;;;;;;3.75;2.92;;;20.50;57.80;;;;;;5085641;27;20032;-68
2021/07/02 08:47:54;;;;;;;3.35;3.10;;;20.60;58.20;;;;;;5085018;28;20043;-68
2021/07/02 08:50:22;;;;;;;3.30;3.05;;;20.60;58.40;;;;;;5086068;27;20043;-68
2021/07/02 08:52:48;;;;;;;3.35;2.75;;;20.70;58.60;;;;;;5081044;28;20048;-67
2021/07/02 08:55:14;;;;;;;3.88;3.10;;;20.80;57.60;;;;;;5083878;28;20173;-67
2021/07/02 08:57:40;;;;;;;3.53;2.95;;;20.90;58.30;;;;;;5086539;27;20566;-67
2021/07/02 09:00:07;;;;;;;3.30;3.05;;;21.00;58.50;;;;;;5084954;28;20114;-67
2021/07/02 09:02:33;;;;;;;3.55;3.05;;;21.20;57.80;;;;;;5084835;27;20100;-67
2021/07/02 09:05:26;;;;;;;2.83;2.63;;;21.20;57.60;;;;;;5082653;27;20074;-67
2021/07/02 09:07:51;;;;;;;2.78;2.58;;;21.40;55.40;;;;;;5088644;28;20020;-67
2021/07/02 09:10:17;;;;;;;3.38;2.95;;;21.50;57.20;;;;;;5090138;27;20044;-67
2021/07/02 09:12:52;;;;;;;3.05;2.80;;;21.60;55.90;;;;;;5081394;27;20111;-67
2021/07/02 09:15:18;;;;;;;2.90;2.70;;;21.70;54.60;;;;;;5088749;28;20040;-67
2021/07/02 09:17:50;;;;;;;3.78;2.65;;;21.80;54.70;;;;;;5081338;28;20036;-67
2021/07/02 09:20:28;;;;;;;2.92;2.72;;;21.80;53.70;;;;;;5088672;28;20032;-68
2021/07/02 09:22:58;;;;;;;3.35;3.05;;;21.80;54.30;;;;;;5088579;28;20024;-67
2021/07/02 09:25:31;;;;;;;3.20;2.70;;;21.80;54.40;;;;;;5088241;27;20114;-67
2021/07/02 09:28:17;;;;;;;2.65;2.45;;;21.80;54.30;;;;;;5090683;28;20047;-67
2021/07/02 09:30:45;;;;;;;3.38;3.10;;;21.80;52.70;;;;;;5088636;27;20036;-66
2021/07/02 09:33:14;;;;;;;2.78;2.53;;;21.80;54.30;;;;;;5089185;27;20057;-68
2021/07/02 09:35:46;;;;;;;2.92;2.72;;;21.80;53.50;;;;;;5088075;28;20039;-68
2021/07/02 09:38:14;;;;;;;3.40;2.72;;;21.70;53.90;;;;;;5090212;27;20077;-67
2021/07/02 09:40:40;;;;;;;3.83;2.80;;;21.70;54.70;;;;;;5087015;27;20636;-67
2021/07/02 09:43:13;;;;;;;3.03;2.83;;;21.70;55.30;;;;;;5089779;28;20302;-67
2021/07/02 09:45:49;;;;;;;3.22;2.88;;;21.80;54.50;;;;;;5087784;28;20063;-68
2021/07/02 09:48:17;;;;;;;3.67;2.80;;;21.80;54.00;;;;;;5089935;28;20032;-67
2021/07/02 09:50:57;;;;;;;2.65;2.45;;;21.80;53.90;;;;;;5084660;27;20038;-67
2021/07/02 09:53:27;;;;;;;3.03;2.75;;;21.80;52.60;;;;;;5088045;27;20032;-67
2021/07/02 09:55:54;;;;;;;3.05;2.80;;;21.90;52.10;;;;;;5088400;28;20036;-68
2021/07/02 09:58:22;;;;;;;3.10;2.80;;;21.90;52.60;;;;;;5081486;28;20028;-67
2021/07/02 10:00:53;;;;;;;5.03;2.53;;;21.90;53.40;;;;;;5102336;27;20051;-68
2021/07/02 10:03:36;;;;;;;2.75;2.50;;;22.00;53.70;;;;;;5088062;28;20048;-68
2021/07/02 10:06:24;;;;;;;4.13;2.60;;;22.10;52.90;;;;;;5088863;27;20024;-65
2021/07/02 10:08:50;;;;;;;4.43;2.92;;;22.20;52.80;;;;;;5086846;28;20574;-65
2021/07/02 10:11:17;;;;;;;3.50;3.20;;;22.30;53.60;;;;;;5085927;28;20403;-64
2021/07/02 10:13:46;;;;;;;3.22;2.88;;;22.40;52.80;;;;;;5087150;27;20028;-65
2021/07/02 10:16:14;;;;;;;2.95;2.67;;;22.50;51.60;;;;;;5088465;28;20032;-65
2021/07/02 10:18:45;;;;;;;2.75;2.55;;;22.50;51.80;;;;;;5084536;27;20024;-65
2021/07/02 10:21:12;;;;;;;2.83;2.47;;;22.50;51.10;;;;;;5087739;27;20043;-65
2021/07/02 10:23:44;;;;;;;2.25;2.13;;;22.60;51.30;;;;;;5086192;28;20122;-64
2021/07/02 10:26:12;;;;;;;4.43;2.72;;;22.70;50.20;;;;;;5085602;27;20050;-66
2021/07/02 10:28:40;;;;;;;2.33;2.22;;;22.70;49.10;;;;;;5086458;27;20097;-65
2021/07/02 10:31:07;;;;;;;2.83;2.33;;;22.70;49.40;;;;;;5080450;27;20598;-65
2021/07/02 10:33:35;;;;;;;2.80;2.50;;;22.70;50.70;;;;;;5086092;27;20035;-65
2021/07/02 10:36:03;;;;;;;4.25;2.70;;;22.70;50.00;;;;;;5087278;28;20028;-65
2021/07/02 10:38:36;;;;;;;2.67;2.50;;;22.80;50.00;;;;;;5087149;27;20067;-65
2021/07/02 10:41:32;;;;;;;3.25;2.40;;;22.80;47.70;;;;;;5087744;27;20036;-65
2021/07/02 10:44:02;;;;;;;2.33;2.05;;;22.90;47.40;;;;;;5068988;28;20126;-65
2021/07/02 10:46:30;;;;;;;2.67;2.47;;;22.90;49.40;;;;;;5086471;27;20427;-65
2021/07/02 10:48:58;;;;;;;2.85;2.65;;;22.90;48.50;;;;;;5103900;27;20038;-66
2021/07/02 10:51:30;;;;;;;2.78;2.45;;;22.90;49.40;;;;;;5083439;28;20078;-65
2021/07/02 10:54:16;;;;;;;2.47;2.30;;;22.90;48.10;;;;;;5084315;28;20118;-65
2021/07/02 10:56:57;;;;;;;2.50;2.30;;;22.90;48.70;;;;;;5101104;27;24831;-65
2021/07/02 10:59:48;;;;;;;3.55;2.30;;;22.90;48.30;;;;;;5087826;28;20127;-65
2021/07/02 11:02:23;;;;;;;2.88;2.67;;;22.90;48.20;;;;;;5081088;27;20042;-65
2021/07/02 11:04:51;;;;;;;2.38;2.17;;;22.80;49.60;;;;;;5086608;27;20016;-65
2021/07/02 11:07:23;;;;;;;2.83;2.15;;;22.90;47.50;;;;;;5088477;27;20036;-64
2021/07/02 11:09:52;;;;;;;2.15;1.90;;;22.80;47.60;;;;;;5086809;27;20021;-65
2021/07/02 11:12:30;;;;;;;2.75;2.00;;;22.90;48.90;;;;;;5084457;28;20035;-66
2021/07/02 11:14:57;;;;;;;2.38;2.17;;;22.90;47.90;;;;;;5085587;28;20047;-65
2021/07/02 11:17:30;;;;;;;3.08;2.17;;;23.00;48.40;;;;;;5087589;27;20062;-65
2021/07/02 11:20:13;;;;;;;2.55;2.35;;;23.00;46.20;;;;;;5088744;28;20032;-65
2021/07/02 11:22:52;;;;;;;2.25;2.03;;;23.10;46.10;;;;;;5083689;27;20044;-65
2021/07/02 11:25:22;;;;;;;2.85;1.85;;;23.10;46.10;;;;;;5084626;28;20068;-65
2021/07/02 11:27:50;;;;;;;2.33;2.13;;;23.10;46.90;;;;;;5084821;28;20455;-65
2021/07/02 11:30:22;;;;;;;2.25;2.13;;;23.20;46.90;;;;;;5093938;28;20038;-66
2021/07/02 11:32:50;;;;;;;2.70;2.50;;;23.20;47.70;;;;;;5086104;27;20027;-65
2021/07/02 11:35:29;;;;;;;2.47;2.30;;;23.20;46.70;;;;;;5086853;28;20036;-65
2021/07/02 11:38:01;;;;;;;2.95;2.53;;;23.20;46.60;;;;;;5087333;27;20047;-65
2021/07/02 11:40:37;;;;;;;2.17;2.08;;;23.20;46.80;;;;;;5085838;27;20028;-66
2021/07/02 11:43:07;;;;;;;2.40;2.20;;;23.20;47.50;;;;;;5084474;28;20036;-65
2021/07/02 11:45:51;;;;;;;2.50;2.30;;;23.20;48.20;;;;;;5086820;27;20036;-65
2021/07/02 11:48:23;;;;;;;2.67;2.15;;;23.30;47.90;;;;;;5085494;28;20032;-65
2021/07/02 11:51:08;;;;;;;3.67;3.00;;;23.40;48.90;;;;;;5087212;28;20024;-65
2021/07/02 11:53:33;;;;;;;2.60;2.40;;;23.50;46.40;;;;;;5099565;27;20036;-66
2021/07/02 11:56:20;;;;;;;2.60;2.40;;;23.60;47.50;;;;;;5085083;28;20035;-65
2021/07/02 11:58:57;;;;;;;2.55;2.33;;;23.60;46.00;;;;;;5084243;28;20040;-65
2021/07/02 12:01:26;;;;;;;2.42;2.25;;;23.70;46.70;;;;;;5086330;27;20108;-65
2021/07/02 12:03:59;;;;;;;2.38;2.17;;;23.70;47.60;;;;;;5087303;28;20036;-65
2021/07/02 12:06:28;;;;;;;2.50;2.30;;;23.80;46.80;;;;;;5084708;28;20100;-66
2021/07/02 12:09:07;;;;;;;2.20;2.00;;;23.70;46.60;;;;;;5081705;28;20059;-65
2021/07/02 12:11:34;;;;;;;1.90;1.80;;;23.70;47.70;;;;;;5085244;28;20050;-65
2021/07/02 12:14:01;;;;;;;1.90;1.80;;;23.70;47.00;;;;;;5083777;27;20115;-66
2021/07/02 12:16:29;;;;;;;2.38;2.17;;;23.70;47.00;;;;;;5086200;27;20040;-65
2021/07/02 12:18:55;;;;;;;2.88;2.35;;;23.70;46.50;;;;;;5087804;28;20035;-65
2021/07/02 12:21:28;;;;;;;3.38;2.15;;;23.70;46.60;;;;;;5090323;27;20036;-66
2021/07/02 12:23:55;;;;;;;2.35;1.90;;;23.70;46.50;;;;;;5084476;28;20830;-65
2021/07/02 12:26:26;;;;;;;2.33;2.17;;;23.70;47.10;;;;;;5084978;27;20036;-65
2021/07/02 12:29:01;;;;;;;2.80;2.30;;;23.80;46.20;;;;;;5081731;27;20041;-65
2021/07/02 12:31:39;;;;;;;2.58;2.38;;;23.80;46.80;;;;;;5087353;28;20036;-66
2021/07/02 12:34:07;;;;;;;2.20;2.10;;;23.90;47.00;;;;;;5082913;27;20020;-64
2021/07/02 12:36:34;;;;;;;2.50;2.28;;;24.00;46.60;;;;;;5085396;27;20115;-65
2021/07/02 12:39:12;;;;;;;2.78;2.50;;;24.10;46.00;;;;;;5083553;28;20578;-65
2021/07/02 12:41:47;;;;;;;2.33;1.95;;;24.20;44.30;;;;;;5083568;28;20101;-65
2021/07/02 12:44:16;;;;;;;2.70;2.30;;;24.20;44.50;;;;;;5077925;28;20099;-65
2021/07/02 12:46:42;;;;;;;2.65;2.45;;;24.20;44.50;;;;;;5084193;27;20051;-66
2021/07/02 12:49:24;;;;;;;2.53;2.33;;;24.20;45.40;;;;;;5086309;27;20032;-68
2021/07/02 12:54:54;;;;;;;1.85;1.75;;;24.20;45.10;;;;;;5081472;27;20059;-68